createdAt,value
2023-05-01T00:02:27.450Z,100.00
2023-05-01T00:07:32.011Z,100.00
2023-05-01T00:12:33.494Z,100.00
2023-05-01T00:17:35.044Z,100.00
2023-05-01T00:22:36.504Z,100.00
2023-05-01T00:27:37.982Z,100.00
2023-05-01T00:32:39.476Z,100.00
2023-05-01T00:37:40.972Z,100.00
2023-05-01T00:42:42.482Z,100.00
2023-05-01T00:47:43.999Z,100.00
2023-05-01T00:52:46.288Z,100.00
2023-05-01T00:57:47.892Z,100.00
2023-05-01T01:02:49.447Z,100.00
2023-05-01T01:08:07.032Z,100.00
2023-05-01T01:13:17.469Z,100.00
2023-05-01T01:18:37.836Z,100.00
2023-05-01T01:24:22.118Z,100.00
2023-05-01T01:29:45.799Z,100.00
2023-05-01T01:35:04.862Z,100.00
2023-05-01T01:40:12.766Z,100.00
2023-05-01T01:45:30.263Z,100.00
2023-05-01T01:50:32.552Z,100.00
2023-05-01T01:55:36.277Z,100.00
2023-05-01T02:00:41.226Z,100.00
2023-05-01T02:05:44.094Z,100.00
2023-05-01T02:10:48.114Z,100.00
2023-05-01T02:15:52.124Z,100.00
2023-05-01T02:20:55.547Z,100.00
2023-05-01T02:26:00.657Z,100.00
2023-05-01T02:31:02.246Z,100.00
2023-05-01T02:36:05.175Z,100.00
2023-05-01T02:41:11.485Z,100.00
2023-05-01T02:46:15.841Z,100.00
2023-05-01T02:51:19.545Z,100.00
2023-05-01T02:56:21.302Z,100.00
2023-05-01T03:01:23.962Z,100.00
2023-05-01T03:06:27.437Z,100.00
2023-05-01T03:11:28.926Z,100.00
2023-05-01T03:16:30.523Z,100.00
2023-05-01T03:21:32.867Z,100.00
2023-05-01T03:26:34.407Z,100.00
2023-05-01T03:31:36.640Z,100.00
2023-05-01T03:36:39.156Z,100.00
2023-05-01T03:41:40.909Z,100.00
2023-05-01T03:46:52.041Z,100.00
2023-05-01T03:52:00.639Z,100.00
2023-05-01T03:57:02.152Z,100.00
2023-05-01T04:02:05.166Z,100.00
2023-05-01T04:07:09.666Z,100.00
2023-05-01T04:12:11.203Z,100.00
2023-05-01T04:17:12.964Z,100.00
2023-05-01T04:22:14.555Z,100.00
2023-05-01T04:27:16.439Z,100.00
2023-05-01T04:32:17.890Z,100.00
2023-05-01T04:37:19.473Z,100.00
2023-05-01T04:42:21.163Z,100.00
2023-05-01T04:47:22.786Z,100.00
2023-05-01T04:52:24.255Z,100.00
2023-05-01T04:57:30.589Z,100.00
2023-05-01T05:02:32.597Z,100.00
2023-05-01T05:07:34.093Z,100.00
2023-05-01T05:12:55.710Z,100.00
2023-05-01T05:17:57.306Z,100.00
2023-05-01T05:22:59.182Z,100.00
2023-05-01T05:28:00.703Z,100.00
2023-05-01T05:33:02.625Z,100.00
2023-05-01T05:38:04.718Z,100.00
2023-05-01T05:43:10.786Z,100.00
2023-05-01T05:48:12.779Z,100.00
2023-05-01T05:53:15.763Z,100.00
2023-05-01T05:58:22.438Z,100.00
2023-05-01T06:03:24.890Z,100.00
2023-05-01T06:08:29.706Z,100.00
2023-05-01T06:13:31.170Z,100.00
2023-05-01T06:18:32.860Z,100.00
2023-05-01T06:23:35.081Z,100.00
2023-05-01T06:28:56.525Z,100.00
2023-05-01T06:33:58.784Z,100.00
2023-05-01T06:39:16.132Z,100.00
2023-05-01T06:44:17.903Z,100.00
2023-05-01T06:49:19.362Z,100.00
2023-05-01T06:54:20.831Z,100.00
2023-05-01T06:59:23.090Z,100.00
2023-05-01T07:04:24.608Z,100.00
2023-05-01T07:09:26.099Z,99.54
2023-05-01T07:14:27.547Z,95.56
2023-05-01T07:19:29.103Z,96.71
2023-05-01T07:24:31.471Z,100.00
2023-05-01T07:29:33.278Z,93.07
2023-05-01T07:34:34.781Z,97.46
2023-05-01T07:39:36.308Z,93.68
2023-05-01T07:44:37.759Z,96.96
2023-05-01T07:49:39.434Z,100.00
2023-05-01T07:54:41.732Z,89.07
2023-05-01T07:59:43.344Z,90.07
2023-05-01T08:04:46.199Z,87.16
2023-05-01T08:09:47.716Z,85.79
2023-05-01T08:14:49.197Z,91.48
2023-05-01T08:19:50.783Z,86.67
2023-05-01T08:24:52.410Z,84.50
2023-05-01T08:29:54.016Z,86.89
2023-05-01T08:34:55.700Z,84.40
2023-05-01T08:39:57.381Z,84.99
2023-05-01T08:44:59.729Z,84.53
2023-05-01T08:50:02.000Z,82.90
2023-05-01T08:55:04.549Z,85.38
2023-05-01T09:00:07.256Z,86.40
2023-05-01T09:05:09.255Z,94.95
2023-05-01T09:10:12.929Z,92.64
2023-05-01T09:15:14.802Z,94.69
2023-05-01T09:20:18.570Z,92.62
2023-05-01T09:25:20.048Z,92.46
2023-05-01T09:30:35.395Z,89.09
2023-05-01T09:35:57.219Z,83.80
2023-05-01T09:41:04.785Z,87.92
2023-05-01T09:46:09.610Z,80.67
2023-05-01T09:51:28.143Z,81.71
2023-05-01T09:56:31.713Z,78.94
2023-05-01T10:01:41.317Z,77.27
2023-05-01T10:06:43.019Z,76.07
2023-05-01T10:11:52.314Z,74.19
2023-05-01T10:16:54.386Z,71.99
2023-05-01T10:21:56.078Z,74.82
2023-05-01T10:26:58.636Z,74.38
2023-05-01T10:32:01.630Z,74.72
2023-05-01T10:37:09.625Z,83.34
2023-05-01T10:42:14.007Z,81.43
2023-05-01T10:47:24.840Z,79.75
2023-05-01T10:52:26.459Z,73.56
2023-05-01T10:57:42.407Z,74.09
2023-05-01T11:02:43.917Z,75.89
2023-05-01T11:07:46.525Z,77.17
2023-05-01T11:12:51.517Z,70.26
2023-05-01T11:17:53.157Z,67.54
2023-05-01T11:22:57.062Z,64.03
2023-05-01T11:28:00.927Z,64.79
2023-05-01T11:33:02.601Z,69.71
2023-05-01T11:38:04.092Z,77.87
2023-05-01T11:43:07.423Z,64.87
2023-05-01T11:48:16.480Z,69.22
2023-05-01T11:53:18.660Z,69.73
2023-05-01T11:58:31.867Z,64.50
2023-05-01T12:03:41.437Z,72.98
2023-05-01T12:08:45.217Z,70.02
2023-05-01T12:13:48.204Z,68.51
2023-05-01T12:18:49.801Z,75.66
2023-05-01T12:23:51.951Z,67.73
2023-05-01T12:29:05.083Z,77.13
2023-05-01T12:34:07.713Z,83.18
2023-05-01T12:39:10.387Z,64.97
2023-05-01T12:44:22.968Z,66.66
2023-05-01T12:49:25.642Z,59.46
2023-05-01T12:54:38.695Z,67.28
2023-05-01T12:59:44.675Z,73.07
2023-05-01T13:04:49.720Z,68.63
2023-05-01T13:09:56.332Z,68.56
2023-05-01T13:14:58.372Z,75.96
2023-05-01T13:20:02.013Z,78.77
2023-05-01T13:25:13.991Z,84.66
2023-05-01T13:30:16.237Z,83.29
2023-05-01T13:35:25.200Z,83.78
2023-05-01T13:40:27.645Z,80.77
2023-05-01T13:45:29.169Z,81.50
2023-05-01T13:50:30.745Z,79.54
2023-05-01T13:55:32.610Z,77.67
2023-05-01T14:00:34.126Z,80.07
2023-05-01T14:05:36.743Z,78.18
2023-05-01T14:10:38.536Z,83.56
2023-05-01T14:15:43.758Z,79.87
2023-05-01T14:20:49.955Z,77.48
2023-05-01T14:25:51.526Z,72.20
2023-05-01T14:30:54.736Z,77.44
2023-05-01T14:35:56.786Z,75.06
2023-05-01T14:40:58.254Z,71.82
2023-05-01T14:46:00.382Z,79.74
2023-05-01T14:51:04.110Z,76.87
2023-05-01T14:56:06.341Z,72.17
2023-05-01T15:01:07.875Z,69.10
2023-05-01T15:06:10.023Z,71.23
2023-05-01T15:11:14.165Z,71.58
2023-05-01T15:16:16.106Z,73.14
2023-05-01T15:21:18.218Z,74.63
2023-05-01T15:26:19.786Z,69.64
2023-05-01T15:31:21.363Z,72.34
2023-05-01T15:36:23.041Z,82.74
2023-05-01T15:41:24.499Z,89.37
2023-05-01T15:46:27.249Z,90.24
2023-05-01T15:51:31.700Z,91.57
2023-05-01T15:56:37.417Z,93.26
2023-05-01T16:01:38.915Z,97.95
2023-05-01T16:06:40.910Z,97.70
2023-05-01T16:11:42.381Z,99.21
2023-05-01T16:16:43.885Z,100.00
2023-05-01T16:21:45.644Z,97.44
2023-05-01T16:26:47.186Z,96.88
2023-05-01T16:31:48.872Z,100.00
2023-05-01T16:36:50.366Z,96.76
2023-05-01T16:41:53.451Z,96.29
2023-05-01T16:46:56.918Z,97.84
2023-05-01T16:51:58.760Z,97.01
2023-05-01T16:57:00.424Z,97.86
2023-05-01T17:02:01.915Z,93.97
2023-05-01T17:07:03.781Z,94.11
2023-05-01T17:12:06.202Z,96.44
2023-05-01T17:17:09.573Z,91.79
2023-05-01T17:22:11.235Z,93.87
2023-05-01T17:27:13.674Z,89.39
2023-05-01T17:32:25.844Z,89.02
2023-05-01T17:37:35.054Z,91.43
2023-05-01T17:42:37.406Z,99.14
2023-05-01T17:47:41.644Z,95.95
2023-05-01T17:52:45.104Z,97.28
2023-05-01T17:57:47.550Z,97.96
2023-05-01T18:02:49.290Z,98.69
2023-05-01T18:07:50.920Z,99.70
2023-05-01T18:12:52.616Z,100.00
2023-05-01T18:17:54.228Z,100.00
2023-05-01T18:22:56.019Z,100.00
2023-05-01T18:27:58.661Z,100.00
2023-05-01T18:33:00.161Z,100.00
2023-05-01T18:38:01.754Z,100.00
2023-05-01T18:43:03.516Z,100.00
2023-05-01T18:48:05.432Z,100.00
2023-05-01T18:53:06.974Z,100.00
2023-05-01T18:58:08.500Z,100.00
2023-05-01T19:03:12.201Z,100.00
2023-05-01T19:08:13.671Z,100.00
2023-05-01T19:13:15.131Z,100.00
2023-05-01T19:18:16.902Z,100.00
2023-05-01T19:23:18.445Z,100.00
2023-05-01T19:28:19.882Z,100.00
2023-05-01T19:33:21.385Z,100.00
2023-05-01T19:38:23.014Z,100.00
2023-05-01T19:43:24.460Z,100.00
2023-05-01T19:48:25.958Z,100.00
2023-05-01T19:53:28.413Z,100.00
2023-05-01T19:58:29.928Z,100.00
2023-05-01T20:03:31.621Z,100.00
2023-05-01T20:08:33.785Z,100.00
2023-05-01T20:13:35.570Z,100.00
2023-05-01T20:18:37.232Z,100.00
2023-05-01T20:23:38.967Z,100.00
2023-05-01T20:28:40.400Z,100.00
2023-05-01T20:33:41.850Z,100.00
2023-05-01T20:38:46.209Z,100.00
2023-05-01T20:43:47.677Z,100.00
2023-05-01T20:48:49.375Z,100.00
2023-05-01T20:53:50.929Z,100.00
2023-05-01T20:58:52.430Z,100.00
2023-05-01T21:03:53.993Z,100.00
2023-05-01T21:08:55.742Z,100.00
2023-05-01T21:13:57.884Z,100.00
2023-05-01T21:18:59.501Z,100.00
2023-05-01T21:24:00.942Z,100.00
2023-05-01T21:29:02.546Z,100.00
2023-05-01T21:34:04.295Z,100.00
2023-05-01T21:39:05.888Z,100.00
2023-05-01T21:44:09.361Z,100.00
2023-05-01T21:49:18.470Z,100.00
2023-05-01T21:54:21.535Z,100.00
2023-05-01T21:59:23.271Z,100.00
2023-05-01T22:04:24.727Z,100.00
2023-05-01T22:09:26.248Z,100.00
2023-05-01T22:14:36.717Z,100.00
2023-05-01T22:19:47.941Z,100.00
2023-05-01T22:24:49.382Z,100.00
2023-05-01T22:29:50.825Z,100.00
2023-05-01T22:34:52.319Z,100.00
2023-05-01T22:39:53.820Z,100.00
2023-05-01T22:44:55.304Z,100.00
2023-05-01T22:49:57.056Z,100.00
2023-05-01T22:54:58.936Z,100.00
2023-05-01T23:00:01.114Z,100.00
2023-05-01T23:05:02.869Z,100.00
2023-05-01T23:10:05.307Z,100.00
2023-05-01T23:15:09.071Z,100.00
2023-05-01T23:20:18.182Z,100.00
2023-05-01T23:25:26.586Z,100.00
2023-05-01T23:30:28.079Z,100.00
2023-05-01T23:35:30.190Z,100.00
2023-05-01T23:40:31.675Z,100.00
2023-05-01T23:45:33.337Z,100.00
2023-05-01T23:50:36.004Z,100.00
2023-05-01T23:55:42.366Z,100.00
